< Typhoon 196321 1963 Season Typhoon 196323 >
Typhoon 196322 (PHYLLIS)
General InformationTrack Information on Google Maps || Disaster Info.ResourceGoogle EarthGE AnimationAtom FeedGeoJSON
Detalied Best Track (Time Zone = UTC)
Year Month Day Hour Lat. Long. Pressure (hPa) Wind (kt) Class Image Chart
1963 12 8 18 7.5 132.3 1006 0 2 -- Chart
1963 12 9 00 7.6 130.5 1006 0 2 -- Chart
1963 12 9 06 8.0 128.6 1004 0 2 -- Chart
1963 12 9 12 8.5 127.5 1006 0 2 -- Chart
1963 12 9 18 9.3 126.0 1002 0 2 -- Chart
1963 12 10 00 9.9 124.7 1006 0 2 -- Chart
1963 12 10 06 10.2 123.8 1005 0 2 -- Chart
1963 12 10 12 10.2 122.6 1006 0 2 -- Chart
1963 12 10 18 10.2 121.5 1006 0 2 -- Chart
1963 12 11 00 10.6 120.7 1006 0 2 -- Chart
1963 12 11 06 11.1 120.3 1004 0 2 -- Chart
1963 12 11 12 11.8 119.9 1002 0 2 -- Chart
1963 12 11 18 12.5 119.5 1000 0 2 -- Chart
1963 12 12 00 13.3 119.1 1000 0 2 -- Chart
1963 12 12 06 14.2 118.8 998 0 9 -- Chart
1963 12 12 12 15.0 118.8 996 0 9 -- Chart
1963 12 12 18 16.0 118.8 994 0 9 -- Chart
1963 12 13 00 17.0 118.8 994 0 9 -- Chart
1963 12 13 06 17.9 118.9 1000 0 9 -- Chart
1963 12 13 12 18.4 118.9 1002 0 6 -- Chart
1963 12 13 18 19.0 119.0 1004 0 6 -- Chart
1963 12 14 00 19.1 119.2 1006 0 6 -- Chart
1963 12 14 06 19.1 119.6 1008 0 6 -- Chart
1963 12 14 12 19.1 119.8 1010 0 6 -- Chart
1963 12 14 18 19.1 120.0 1011 0 6 -- Chart
1963 12 15 00 19.2 120.2 1013 0 6 -- Chart
Japan Meteorological Agency Best Track Data | Correction Date : 1989-06-01
< Typhoon 196321 1963 Season Typhoon 196323 >

Help